Terminal Aerodrome Forecast
Issued by NWS

Home | Current Version | Previous Version | Text Only | Print | Product List | Glossary On
Versions: 1 2 3 4 5 6 7 8 9 10 11 12 13 14 15 16 17 18 19 20 21 22
000
FTUS46 KSTO 230500
TAFRDD
TAF
KRDD 230531Z 2306/2406 VRB05KT P6SM VCSH OVC090
     FM231200 18005KT P6SM -RA OVC050
     FM232200 19006KT P6SM -RA OVC050=

USA.gov is the U.S. government's official web portal to all federal, state and local government web resources and services.